sensor_id;sensor_type;location;lat;lon;timestamp;pressure;altitude;pressure_sealevel;temperature;humidity
10646;BME280;5371;49.782;9.932;2022-08-21T00:00:10;99668.91;;;17.15;100.00
10646;BME280;5371;49.782;9.932;2022-08-21T00:02:48;99667.25;;;17.14;100.00
10646;BME280;5371;49.782;9.932;2022-08-21T00:05:18;99664.59;;;17.14;100.00
10646;BME280;5371;49.782;9.932;2022-08-21T00:07:48;99656.13;;;17.10;100.00
10646;BME280;5371;49.782;9.932;2022-08-21T00:10:16;99663.59;;;17.05;100.00
10646;BME280;5371;49.782;9.932;2022-08-21T00:12:44;99660.53;;;17.00;100.00
10646;BME280;5371;49.782;9.932;2022-08-21T00:15:16;99658.84;;;16.99;100.00
10646;BME280;5371;49.782;9.932;2022-08-21T00:17:46;99656.34;;;16.98;100.00
10646;BME280;5371;49.782;9.932;2022-08-21T00:20:16;99657.47;;;17.05;100.00
10646;BME280;5371;49.782;9.932;2022-08-21T00:22:44;99647.56;;;16.97;100.00
10646;BME280;5371;49.782;9.932;2022-08-21T00:25:13;99651.59;;;16.92;100.00
10646;BME280;5371;49.782;9.932;2022-08-21T00:27:40;99647.28;;;16.91;100.00
10646;BME280;5371;49.782;9.932;2022-08-21T00:30:10;99646.44;;;16.90;100.00
10646;BME280;5371;49.782;9.932;2022-08-21T00:32:39;99643.53;;;16.93;100.00
10646;BME280;5371;49.782;9.932;2022-08-21T00:35:12;99648.75;;;16.83;100.00
10646;BME280;5371;49.782;9.932;2022-08-21T00:37:52;99642.84;;;16.70;100.00
10646;BME280;5371;49.782;9.932;2022-08-21T00:40:24;99645.28;;;16.62;100.00
10646;BME280;5371;49.782;9.932;2022-08-21T00:42:52;99644.47;;;16.62;100.00
10646;BME280;5371;49.782;9.932;2022-08-21T00:45:24;99646.81;;;16.86;100.00
10646;BME280;5371;49.782;9.932;2022-08-21T00:47:54;99647.53;;;16.67;100.00
10646;BME280;5371;49.782;9.932;2022-08-21T00:50:26;99637.38;;;16.62;100.00
10646;BME280;5371;49.782;9.932;2022-08-21T00:52:55;99641.91;;;16.60;100.00
10646;BME280;5371;49.782;9.932;2022-08-21T00:55:24;99638.22;;;16.63;100.00
10646;BME280;5371;49.782;9.932;2022-08-21T00:57:53;99630.44;;;16.61;100.00
10646;BME280;5371;49.782;9.932;2022-08-21T01:00:25;99643.84;;;16.58;100.00
10646;BME280;5371;49.782;9.932;2022-08-21T01:02:54;99638.13;;;16.53;100.00
10646;BME280;5371;49.782;9.932;2022-08-21T01:05:24;99639.78;;;16.54;100.00
10646;BME280;5371;49.782;9.932;2022-08-21T01:07:52;99639.78;;;16.54;100.00
10646;BME280;5371;49.782;9.932;2022-08-21T01:10:19;99640.75;;;16.53;100.00
10646;BME280;5371;49.782;9.932;2022-08-21T01:12:50;99644.09;;;16.55;100.00
10646;BME280;5371;49.782;9.932;2022-08-21T01:15:19;99645.50;;;16.59;100.00
10646;BME280;5371;49.782;9.932;2022-08-21T01:17:49;99645.28;;;16.62;100.00
10646;BME280;5371;49.782;9.932;2022-08-21T01:20:17;99644.22;;;16.65;100.00
10646;BME280;5371;49.782;9.932;2022-08-21T01:22:46;99641.69;;;16.63;100.00
10646;BME280;5371;49.782;9.932;2022-08-21T01:25:16;99649.47;;;16.65;100.00
10646;BME280;5371;49.782;9.932;2022-08-21T01:27:45;99641.69;;;16.63;100.00
10646;BME280;5371;49.782;9.932;2022-08-21T01:30:14;99643.72;;;16.60;100.00
10646;BME280;5371;49.782;9.932;2022-08-21T01:32:44;99645.63;;;16.58;100.00
10646;BME280;5371;49.782;9.932;2022-08-21T01:35:15;99642.31;;;16.56;100.00
10646;BME280;5371;49.782;9.932;2022-08-21T01:37:46;99648.03;;;16.61;100.00
10646;BME280;5371;49.782;9.932;2022-08-21T01:40:15;99643.38;;;16.64;100.00
10646;BME280;5371;49.782;9.932;2022-08-21T01:43:08;99644.47;;;16.62;100.00
10646;BME280;5371;49.782;9.932;2022-08-21T01:45:36;99645.03;;;16.65;100.00
10646;BME280;5371;49.782;9.932;2022-08-21T01:48:04;99646.00;;;16.64;100.00
10646;BME280;5371;49.782;9.932;2022-08-21T01:50:32;99642.03;;;16.59;100.00
10646;BME280;5371;49.782;9.932;2022-08-21T01:53:02;99651.91;;;16.57;100.00
10646;BME280;5371;49.782;9.932;2022-08-21T01:55:31;99644.66;;;16.59;100.00
10646;BME280;5371;49.782;9.932;2022-08-21T01:57:59;99652.47;;;16.60;100.00
10646;BME280;5371;49.782;9.932;2022-08-21T02:00:29;99640.34;;;16.58;100.00
10646;BME280;5371;49.782;9.932;2022-08-21T02:02:57;99645.28;;;16.62;100.00
10646;BME280;5371;49.782;9.932;2022-08-21T02:05:26;99645.91;;;16.55;100.00
10646;BME280;5371;49.782;9.932;2022-08-21T02:07:55;99642.13;;;16.48;100.00
10646;BME280;5371;49.782;9.932;2022-08-21T02:10:26;99640.09;;;16.40;100.00
10646;BME280;5371;49.782;9.932;2022-08-21T02:12:54;99635.34;;;16.34;100.00
10646;BME280;5371;49.782;9.932;2022-08-21T02:15:23;99631.16;;;16.31;100.00
10646;BME280;5371;49.782;9.932;2022-08-21T02:17:52;99634.75;;;16.30;100.00
10646;BME280;5371;49.782;9.932;2022-08-21T02:20:26;99632.50;;;16.26;100.00
10646;BME280;5371;49.782;9.932;2022-08-21T02:22:56;99635.06;;;16.16;100.00
10646;BME280;5371;49.782;9.932;2022-08-21T02:25:25;99635.16;;;16.26;100.00
10646;BME280;5371;49.782;9.932;2022-08-21T02:27:57;99634.09;;;16.17;100.00
10646;BME280;5371;49.782;9.932;2022-08-21T02:30:30;99628.91;;;16.27;100.00
10646;BME280;5371;49.782;9.932;2022-08-21T02:33:01;99633.03;;;16.20;100.00
10646;BME280;5371;49.782;9.932;2022-08-21T02:35:32;99634.47;;;16.13;100.00
10646;BME280;5371;49.782;9.932;2022-08-21T02:38:03;99629.25;;;16.01;100.00
10646;BME280;5371;49.782;9.932;2022-08-21T02:40:38;99630.03;;;15.92;100.00
10646;BME280;5371;49.782;9.932;2022-08-21T02:43:07;99628.81;;;15.85;100.00
10646;BME280;5371;49.782;9.932;2022-08-21T02:45:35;99633.84;;;15.88;100.00
10646;BME280;5371;49.782;9.932;2022-08-21T02:48:04;99626.47;;;15.82;100.00
10646;BME280;5371;49.782;9.932;2022-08-21T02:50:33;99628.50;;;15.79;100.00
10646;BME280;5371;49.782;9.932;2022-08-21T02:53:01;99625.53;;;15.72;100.00
10646;BME280;5371;49.782;9.932;2022-08-21T02:55:30;99628.38;;;15.69;100.00
10646;BME280;5371;49.782;9.932;2022-08-21T02:58:00;99625.63;;;15.70;100.00
10646;BME280;5371;49.782;9.932;2022-08-21T03:00:30;99631.66;;;15.61;100.00
10646;BME280;5371;49.782;9.932;2022-08-21T03:02:58;99628.69;;;15.55;100.00
10646;BME280;5371;49.782;9.932;2022-08-21T03:05:28;99631.41;;;15.53;100.00
10646;BME280;5371;49.782;9.932;2022-08-21T03:07:59;99630.91;;;15.48;100.00
10646;BME280;5371;49.782;9.932;2022-08-21T03:10:26;99631.50;;;15.52;100.00
10646;BME280;5371;49.782;9.932;2022-08-21T03:12:54;99632.25;;;15.43;100.00
10646;BME280;5371;49.782;9.932;2022-08-21T03:15:23;99634.31;;;15.28;100.00
10646;BME280;5371;49.782;9.932;2022-08-21T03:17:51;99627.59;;;15.24;100.00
10646;BME280;5371;49.782;9.932;2022-08-21T03:20:23;99621.59;;;15.33;100.00
10646;BME280;5371;49.782;9.932;2022-08-21T03:22:54;99628.19;;;15.27;100.00
10646;BME280;5371;49.782;9.932;2022-08-21T03:25:25;99628.94;;;15.29;100.00
10646;BME280;5371;49.782;9.932;2022-08-21T03:27:52;99630.47;;;15.21;100.00
10646;BME280;5371;49.782;9.932;2022-08-21T03:30:21;99629.03;;;15.17;100.00
10646;BME280;5371;49.782;9.932;2022-08-21T03:32:50;99636.81;;;15.07;100.00
10646;BME280;5371;49.782;9.932;2022-08-21T03:35:32;99632.72;;;15.03;100.00
10646;BME280;5371;49.782;9.932;2022-08-21T03:38:00;99638.59;;;15.07;100.00
10646;BME280;5371;49.782;9.932;2022-08-21T03:40:32;99638.38;;;14.98;100.00
10646;BME280;5371;49.782;9.932;2022-08-21T03:43:05;99642.31;;;14.93;100.00
10646;BME280;5371;49.782;9.932;2022-08-21T03:45:34;99639.56;;;14.83;100.00
10646;BME280;5371;49.782;9.932;2022-08-21T03:48:04;99639.41;;;14.85;100.00
10646;BME280;5371;49.782;9.932;2022-08-21T03:50:36;99638.09;;;14.79;100.00
10646;BME280;5371;49.782;9.932;2022-08-21T03:53:05;99637.50;;;14.76;100.00
10646;BME280;5371;49.782;9.932;2022-08-21T03:55:33;99648.13;;;14.63;100.00
10646;BME280;5371;49.782;9.932;2022-08-21T03:58:01;99650.41;;;14.56;100.00
10646;BME280;5371;49.782;9.932;2022-08-21T04:00:30;99649.28;;;14.48;100.00
10646;BME280;5371;49.782;9.932;2022-08-21T04:02:57;99657.19;;;14.59;100.00
10646;BME280;5371;49.782;9.932;2022-08-21T04:05:27;99652.63;;;14.50;100.00
10646;BME280;5371;49.782;9.932;2022-08-21T04:07:55;99657.19;;;14.59;100.00
10646;BME280;5371;49.782;9.932;2022-08-21T04:10:23;99663.75;;;14.53;100.00
10646;BME280;5371;49.782;9.932;2022-08-21T04:12:52;99667.50;;;14.62;100.00
10646;BME280;5371;49.782;9.932;2022-08-21T04:15:20;99667.59;;;14.60;100.00
10646;BME280;5371;49.782;9.932;2022-08-21T04:17:52;99670.19;;;14.49;100.00
10646;BME280;5371;49.782;9.932;2022-08-21T04:20:21;99674.75;;;14.47;100.00
10646;BME280;5371;49.782;9.932;2022-08-21T04:22:50;99679.28;;;14.45;100.00
10646;BME280;5371;49.782;9.932;2022-08-21T04:25:20;99679.75;;;14.50;100.00
10646;BME280;5371;49.782;9.932;2022-08-21T04:27:50;99681.81;;;14.47;100.00
10646;BME280;5371;49.782;9.932;2022-08-21T04:30:17;99681.06;;;14.45;100.00
10646;BME280;5371;49.782;9.932;2022-08-21T04:32:47;99694.34;;;14.43;100.00
10646;BME280;5371;49.782;9.932;2022-08-21T04:35:16;99695.06;;;14.45;100.00
10646;BME280;5371;49.782;9.932;2022-08-21T04:37:44;99693.91;;;14.37;100.00
10646;BME280;5371;49.782;9.932;2022-08-21T04:40:17;99700.03;;;14.37;100.00
10646;BME280;5371;49.782;9.932;2022-08-21T04:42:50;99703.81;;;14.33;100.00
10646;BME280;5371;49.782;9.932;2022-08-21T04:45:22;99704.75;;;14.32;100.00
10646;BME280;5371;49.782;9.932;2022-08-21T04:47:51;99701.19;;;14.33;100.00
10646;BME280;5371;49.782;9.932;2022-08-21T04:50:19;99707.63;;;14.29;100.00
10646;BME280;5371;49.782;9.932;2022-08-21T04:53:03;99712.66;;;14.32;100.00
10646;BME280;5371;49.782;9.932;2022-08-21T04:55:32;99704.03;;;14.30;100.00
10646;BME280;5371;49.782;9.932;2022-08-21T04:57:59;99716.00;;;14.34;100.00
10646;BME280;5371;49.782;9.932;2022-08-21T05:00:27;99712.22;;;14.38;100.00
10646;BME280;5371;49.782;9.932;2022-08-21T05:02:55;99717.69;;;14.59;100.00
10646;BME280;5371;49.782;9.932;2022-08-21T05:05:27;99724.19;;;14.42;100.00
10646;BME280;5371;49.782;9.932;2022-08-21T05:07:56;99719.78;;;14.43;100.00
10646;BME280;5371;49.782;9.932;2022-08-21T05:10:24;99727.72;;;14.54;100.00
10646;BME280;5371;49.782;9.932;2022-08-21T05:12:53;99722.47;;;14.54;100.00
10646;BME280;5371;49.782;9.932;2022-08-21T05:15:21;99726.03;;;14.53;100.00
10646;BME280;5371;49.782;9.932;2022-08-21T05:17:48;99723.53;;;14.51;100.00
10646;BME280;5371;49.782;9.932;2022-08-21T05:20:16;99723.53;;;14.51;100.00
10646;BME280;5371;49.782;9.932;2022-08-21T05:22:46;99729.63;;;14.52;100.00
10646;BME280;5371;49.782;9.932;2022-08-21T05:25:14;99732.97;;;14.54;100.00
10646;BME280;5371;49.782;9.932;2022-08-21T05:27:43;99729.16;;;14.58;100.00
10646;BME280;5371;49.782;9.932;2022-08-21T05:30:14;99735.03;;;14.62;100.00
10646;BME280;5371;49.782;9.932;2022-08-21T05:32:41;99735.19;;;14.71;100.00
10646;BME280;5371;49.782;9.932;2022-08-21T05:35:09;99734.00;;;14.75;100.00
10646;BME280;5371;49.782;9.932;2022-08-21T05:37:37;99731.19;;;14.89;100.00
10646;BME280;5371;49.782;9.932;2022-08-21T05:40:05;99730.44;;;14.87;100.00
10646;BME280;5371;49.782;9.932;2022-08-21T05:42:33;99740.75;;;14.90;100.00
10646;BME280;5371;49.782;9.932;2022-08-21T05:45:01;99742.19;;;14.94;100.00
10646;BME280;5371;49.782;9.932;2022-08-21T05:47:29;99744.25;;;15.02;100.00
10646;BME280;5371;49.782;9.932;2022-08-21T05:50:01;99746.88;;;15.13;100.00
10646;BME280;5371;49.782;9.932;2022-08-21T05:52:29;99745.59;;;15.19;100.00
10646;BME280;5371;49.782;9.932;2022-08-21T05:54:56;99751.00;;;15.28;100.00
10646;BME280;5371;49.782;9.932;2022-08-21T05:57:26;99742.84;;;15.31;100.00
10646;BME280;5371;49.782;9.932;2022-08-21T05:59:55;99750.03;;;15.41;100.00
10646;BME280;5371;49.782;9.932;2022-08-21T06:02:25;99747.91;;;15.46;100.00
10646;BME280;5371;49.782;9.932;2022-08-21T06:04:58;99748.16;;;15.54;100.00
10646;BME280;5371;49.782;9.932;2022-08-21T06:07:25;99740.97;;;15.67;100.00
10646;BME280;5371;49.782;9.932;2022-08-21T06:09:54;99732.59;;;15.62;100.00
10646;BME280;5371;49.782;9.932;2022-08-21T06:12:22;99733.91;;;15.67;100.00
10646;BME280;5371;49.782;9.932;2022-08-21T06:14:49;99728.00;;;15.75;100.00
10646;BME280;5371;49.782;9.932;2022-08-21T06:17:18;99720.59;;;15.80;100.00
10646;BME280;5371;49.782;9.932;2022-08-21T06:19:49;99723.44;;;15.99;100.00
10646;BME280;5371;49.782;9.932;2022-08-21T06:22:19;99731.34;;;16.11;100.00
10646;BME280;5371;49.782;9.932;2022-08-21T06:24:47;99729.66;;;16.09;100.00
10646;BME280;5371;49.782;9.932;2022-08-21T06:27:16;99735.38;;;16.15;100.00
10646;BME280;5371;49.782;9.932;2022-08-21T06:29:44;99724.41;;;16.30;100.00
10646;BME280;5371;49.782;9.932;2022-08-21T06:32:13;99730.28;;;16.34;100.00
10646;BME280;5371;49.782;9.932;2022-08-21T06:34:42;99725.34;;;16.40;99.09
10646;BME280;5371;49.782;9.932;2022-08-21T06:37:10;99726.78;;;16.44;97.21
10646;BME280;5371;49.782;9.932;2022-08-21T06:39:39;99729.50;;;16.54;96.43
10646;BME280;5371;49.782;9.932;2022-08-21T06:42:06;99733.66;;;16.68;96.57
10646;BME280;5371;49.782;9.932;2022-08-21T06:44:41;99723.28;;;16.76;95.52
10646;BME280;5371;49.782;9.932;2022-08-21T06:47:09;99731.44;;;16.84;93.54
10646;BME280;5371;49.782;9.932;2022-08-21T06:49:36;99729.09;;;16.91;92.16
10646;BME280;5371;49.782;9.932;2022-08-21T06:52:03;99731.69;;;17.02;92.22
10646;BME280;5371;49.782;9.932;2022-08-21T06:54:32;99726.31;;;17.13;92.43
10646;BME280;5371;49.782;9.932;2022-08-21T06:57:04;99726.09;;;17.26;90.74
10646;BME280;5371;49.782;9.932;2022-08-21T06:59:34;99721.84;;;17.34;90.00
10646;BME280;5371;49.782;9.932;2022-08-21T07:02:02;99732.44;;;17.44;89.74
10646;BME280;5371;49.782;9.932;2022-08-21T07:04:29;99731.41;;;17.56;89.49
10646;BME280;5371;49.782;9.932;2022-08-21T07:06:56;99725.19;;;17.67;88.66
10646;BME280;5371;49.782;9.932;2022-08-21T07:09:24;99722.91;;;17.83;88.03
10646;BME280;5371;49.782;9.932;2022-08-21T07:11:53;99726.41;;;17.93;88.24
10646;BME280;5371;49.782;9.932;2022-08-21T07:14:22;99724.06;;;18.09;86.98
10646;BME280;5371;49.782;9.932;2022-08-21T07:16:49;99725.06;;;18.27;86.05
10646;BME280;5371;49.782;9.932;2022-08-21T07:19:17;99725.47;;;18.42;83.86
10646;BME280;5371;49.782;9.932;2022-08-21T07:21:45;99722.47;;;18.66;83.56
10646;BME280;5371;49.782;9.932;2022-08-21T07:24:12;99732.16;;;18.85;81.37
10646;BME280;5371;49.782;9.932;2022-08-21T07:26:39;99727.53;;;19.16;80.04
10646;BME280;5371;49.782;9.932;2022-08-21T07:29:10;99725.47;;;19.56;77.67
10646;BME280;5371;49.782;9.932;2022-08-21T07:31:40;99708.63;;;20.02;75.05
10646;BME280;5371;49.782;9.932;2022-08-21T07:34:08;99719.22;;;20.47;73.46
10646;BME280;5371;49.782;9.932;2022-08-21T07:36:36;99722.31;;;21.04;71.12
10646;BME280;5371;49.782;9.932;2022-08-21T07:39:04;99720.50;;;21.31;70.08
10646;BME280;5371;49.782;9.932;2022-08-21T07:41:33;99710.38;;;21.68;68.62
10646;BME280;5371;49.782;9.932;2022-08-21T07:44:04;99709.75;;;22.16;66.61
10646;BME280;5371;49.782;9.932;2022-08-21T07:46:36;99706.63;;;22.69;65.42
10646;BME280;5371;49.782;9.932;2022-08-21T07:49:10;99708.31;;;23.03;64.26
10646;BME280;5371;49.782;9.932;2022-08-21T07:51:43;99705.28;;;23.69;62.24
10646;BME280;5371;49.782;9.932;2022-08-21T07:54:13;99700.16;;;23.99;60.82
10646;BME280;5371;49.782;9.932;2022-08-21T07:56:42;99695.50;;;24.23;59.35
10646;BME280;5371;49.782;9.932;2022-08-21T07:59:09;99687.25;;;24.33;57.82
10646;BME280;5371;49.782;9.932;2022-08-21T08:01:37;99684.53;;;24.64;58.46
10646;BME280;5371;49.782;9.932;2022-08-21T08:04:07;99683.63;;;24.94;56.87
10646;BME280;5371;49.782;9.932;2022-08-21T08:06:35;99684.91;;;25.13;55.89
10646;BME280;5371;49.782;9.932;2022-08-21T08:09:03;99682.22;;;25.13;54.68
10646;BME280;5371;49.782;9.932;2022-08-21T08:11:31;99673.38;;;25.42;54.37
10646;BME280;5371;49.782;9.932;2022-08-21T08:14:00;99674.50;;;25.62;53.53
10646;BME280;5371;49.782;9.932;2022-08-21T08:16:29;99673.03;;;25.75;53.17
10646;BME280;5371;49.782;9.932;2022-08-21T08:18:57;99673.97;;;26.03;54.19
10646;BME280;5371;49.782;9.932;2022-08-21T08:21:24;99666.22;;;26.29;53.19
10646;BME280;5371;49.782;9.932;2022-08-21T08:23:57;99667.06;;;26.30;52.15
10646;BME280;5371;49.782;9.932;2022-08-21T08:26:24;99669.78;;;26.58;52.57
10646;BME280;5371;49.782;9.932;2022-08-21T08:28:53;99667.94;;;26.58;51.47
10646;BME280;5371;49.782;9.932;2022-08-21T08:31:22;99663.75;;;26.77;50.97
10646;BME280;5371;49.782;9.932;2022-08-21T08:33:50;99658.47;;;27.11;51.27
10646;BME280;5371;49.782;9.932;2022-08-21T08:36:18;99667.75;;;27.15;50.59
10646;BME280;5371;49.782;9.932;2022-08-21T08:38:46;99665.00;;;27.37;49.24
10646;BME280;5371;49.782;9.932;2022-08-21T08:41:17;99664.84;;;27.51;49.08
10646;BME280;5371;49.782;9.932;2022-08-21T08:43:53;99658.63;;;27.44;48.32
10646;BME280;5371;49.782;9.932;2022-08-21T08:46:29;99656.34;;;27.41;48.71
10646;BME280;5371;49.782;9.932;2022-08-21T08:49:02;99648.66;;;27.73;49.10
10646;BME280;5371;49.782;9.932;2022-08-21T08:51:40;99649.75;;;27.91;48.43
10646;BME280;5371;49.782;9.932;2022-08-21T08:54:17;99644.69;;;28.23;48.20
10646;BME280;5371;49.782;9.932;2022-08-21T08:56:47;99642.94;;;27.89;48.73
10646;BME280;5371;49.782;9.932;2022-08-21T08:59:23;99647.28;;;27.97;49.63
10646;BME280;5371;49.782;9.932;2022-08-21T09:01:54;99645.97;;;28.40;47.54
10646;BME280;5371;49.782;9.932;2022-08-21T09:04:24;99647.19;;;28.44;45.25
10646;BME280;5371;49.782;9.932;2022-08-21T09:07:01;99646.16;;;28.78;45.80
10646;BME280;5371;49.782;9.932;2022-08-21T09:09:42;99640.59;;;28.80;45.26
10646;BME280;5371;49.782;9.932;2022-08-21T09:12:25;99643.06;;;28.61;46.85
10646;BME280;5371;49.782;9.932;2022-08-21T09:15:09;99637.28;;;28.91;45.22
10646;BME280;5371;49.782;9.932;2022-08-21T09:17:44;99639.94;;;29.11;45.06
10646;BME280;5371;49.782;9.932;2022-08-21T09:20:23;99634.56;;;28.71;45.84
10646;BME280;5371;49.782;9.932;2022-08-21T09:23:03;99635.00;;;28.88;45.79
10646;BME280;5371;49.782;9.932;2022-08-21T09:25:38;99634.97;;;28.68;45.42
10646;BME280;5371;49.782;9.932;2022-08-21T09:28:11;99636.00;;;29.13;45.23
10646;BME280;5371;49.782;9.932;2022-08-21T09:30:41;99634.50;;;29.24;44.77
10646;BME280;5371;49.782;9.932;2022-08-21T09:33:11;99625.38;;;29.31;43.97
10646;BME280;5371;49.782;9.932;2022-08-21T09:35:48;99623.72;;;29.37;43.63
10646;BME280;5371;49.782;9.932;2022-08-21T09:38:27;99630.59;;;29.20;43.46
10646;BME280;5371;49.782;9.932;2022-08-21T09:40:58;99624.31;;;29.32;43.64
10646;BME280;5371;49.782;9.932;2022-08-21T09:43:34;99624.38;;;29.19;43.09
10646;BME280;5371;49.782;9.932;2022-08-21T09:46:09;99624.78;;;29.16;42.43
10646;BME280;5371;49.782;9.932;2022-08-21T09:48:43;99625.69;;;28.84;42.97
10646;BME280;5371;49.782;9.932;2022-08-21T09:51:14;99619.44;;;29.10;42.47
10646;BME280;5371;49.782;9.932;2022-08-21T09:53:45;99606.25;;;29.53;41.52
10646;BME280;5371;49.782;9.932;2022-08-21T09:56:20;99607.81;;;29.22;39.67
10646;BME280;5371;49.782;9.932;2022-08-21T09:59:25;99613.72;;;28.40;41.94
10646;BME280;5371;49.782;9.932;2022-08-21T10:01:54;99606.53;;;27.73;44.28
10646;BME280;5371;49.782;9.932;2022-08-21T10:04:28;99618.03;;;27.54;43.29
10646;BME280;5371;49.782;9.932;2022-08-21T10:07:06;99611.13;;;26.97;45.32
10646;BME280;5371;49.782;9.932;2022-08-21T10:09:34;99609.25;;;26.70;46.04
10646;BME280;5371;49.782;9.932;2022-08-21T10:12:15;99611.22;;;26.33;46.24
10646;BME280;5371;49.782;9.932;2022-08-21T10:14:56;99603.91;;;26.70;46.28
10646;BME280;5371;49.782;9.932;2022-08-21T10:17:32;99600.25;;;27.53;44.12
10646;BME280;5371;49.782;9.932;2022-08-21T10:20:09;99594.25;;;28.25;41.43
10646;BME280;5371;49.782;9.932;2022-08-21T10:22:46;99598.00;;;28.77;39.11
10646;BME280;5371;49.782;9.932;2022-08-21T10:25:23;99590.06;;;29.01;38.72
10646;BME280;5371;49.782;9.932;2022-08-21T10:27:58;99585.34;;;28.77;38.70
10646;BME280;5371;49.782;9.932;2022-08-21T10:30:36;99576.84;;;29.51;37.33
10646;BME280;5371;49.782;9.932;2022-08-21T10:33:14;99578.88;;;29.62;37.23
10646;BME280;5371;49.782;9.932;2022-08-21T10:35:51;99582.91;;;29.47;37.28
10646;BME280;5371;49.782;9.932;2022-08-21T10:38:45;99571.94;;;29.42;38.44
10646;BME280;5371;49.782;9.932;2022-08-21T10:41:19;99576.84;;;28.93;38.75
10646;BME280;5371;49.782;9.932;2022-08-21T10:43:52;99576.22;;;28.91;39.30
10646;BME280;5371;49.782;9.932;2022-08-21T10:46:37;99570.81;;;29.04;37.79
10646;BME280;5371;49.782;9.932;2022-08-21T10:49:16;99567.19;;;28.33;38.87
10646;BME280;5371;49.782;9.932;2022-08-21T10:51:52;99567.78;;;28.09;37.72
10646;BME280;5371;49.782;9.932;2022-08-21T10:54:31;99564.91;;;28.50;37.30
10646;BME280;5371;49.782;9.932;2022-08-21T10:57:04;99563.91;;;29.28;36.30
10646;BME280;5371;49.782;9.932;2022-08-21T10:59:39;99567.50;;;29.09;35.35
10646;BME280;5371;49.782;9.932;2022-08-21T11:02:17;99560.91;;;29.88;34.50
10646;BME280;5371;49.782;9.932;2022-08-21T11:04:52;99559.03;;;30.44;33.53
10646;BME280;5371;49.782;9.932;2022-08-21T11:07:26;99552.00;;;30.68;33.50
10646;BME280;5371;49.782;9.932;2022-08-21T11:09:55;99554.31;;;30.65;35.30
10646;BME280;5371;49.782;9.932;2022-08-21T11:12:31;99553.88;;;30.18;33.65
10646;BME280;5371;49.782;9.932;2022-08-21T11:15:07;99552.38;;;30.47;33.87
10646;BME280;5371;49.782;9.932;2022-08-21T11:17:53;99556.41;;;30.38;34.60
10646;BME280;5371;49.782;9.932;2022-08-21T11:20:38;99548.16;;;29.70;36.73
10646;BME280;5371;49.782;9.932;2022-08-21T11:23:11;99545.34;;;29.07;36.67
10646;BME280;5371;49.782;9.932;2022-08-21T11:25:44;99551.63;;;28.61;37.97
10646;BME280;5371;49.782;9.932;2022-08-21T11:28:17;99544.44;;;28.55;38.83
10646;BME280;5371;49.782;9.932;2022-08-21T11:31:04;99548.13;;;28.61;38.35
10646;BME280;5371;49.782;9.932;2022-08-21T11:33:58;99545.84;;;28.64;36.40
10646;BME280;5371;49.782;9.932;2022-08-21T11:36:44;99542.78;;;28.48;37.24
10646;BME280;5371;49.782;9.932;2022-08-21T11:39:22;99543.38;;;27.97;38.46
10646;BME280;5371;49.782;9.932;2022-08-21T11:42:05;99542.09;;;27.86;38.92
10646;BME280;5371;49.782;9.932;2022-08-21T11:44:41;99527.13;;;27.44;38.77
10646;BME280;5371;49.782;9.932;2022-08-21T11:47:16;99528.06;;;27.71;38.69
10646;BME280;5371;49.782;9.932;2022-08-21T11:50:01;99529.38;;;28.28;37.67
10646;BME280;5371;49.782;9.932;2022-08-21T11:52:34;99519.00;;;28.58;37.44
10646;BME280;5371;49.782;9.932;2022-08-21T11:55:07;99522.34;;;28.40;38.39
10646;BME280;5371;49.782;9.932;2022-08-21T11:57:45;99520.47;;;28.34;37.60
10646;BME280;5371;49.782;9.932;2022-08-21T12:00:20;99510.72;;;28.07;37.08
10646;BME280;5371;49.782;9.932;2022-08-21T12:02:50;99508.69;;;28.02;38.07
10646;BME280;5371;49.782;9.932;2022-08-21T12:05:36;99520.84;;;28.05;38.74
10646;BME280;5371;49.782;9.932;2022-08-21T12:08:09;99513.84;;;28.04;37.77
10646;BME280;5371;49.782;9.932;2022-08-21T12:10:39;99506.19;;;27.74;37.98
10646;BME280;5371;49.782;9.932;2022-08-21T12:13:09;99509.88;;;27.73;38.04
10646;BME280;5371;49.782;9.932;2022-08-21T12:15:38;99503.63;;;27.40;37.62
10646;BME280;5371;49.782;9.932;2022-08-21T12:18:07;99507.28;;;27.32;37.55
10646;BME280;5371;49.782;9.932;2022-08-21T12:21:01;99510.31;;;27.16;38.31
10646;BME280;5371;49.782;9.932;2022-08-21T12:23:32;99506.81;;;26.74;38.73
10646;BME280;5371;49.782;9.932;2022-08-21T12:26:09;99503.91;;;27.04;38.24
10646;BME280;5371;49.782;9.932;2022-08-21T12:28:39;99501.72;;;27.27;38.03
10646;BME280;5371;49.782;9.932;2022-08-21T12:31:21;99489.50;;;27.11;37.06
10646;BME280;5371;49.782;9.932;2022-08-21T12:33:53;99499.00;;;27.21;39.53
10646;BME280;5371;49.782;9.932;2022-08-21T12:36:24;99494.94;;;27.38;35.83
10646;BME280;5371;49.782;9.932;2022-08-21T12:38:56;99489.88;;;27.02;36.15
10646;BME280;5371;49.782;9.932;2022-08-21T12:41:28;99488.63;;;27.04;38.20
10646;BME280;5371;49.782;9.932;2022-08-21T12:43:59;99490.06;;;27.00;36.99
10646;BME280;5371;49.782;9.932;2022-08-21T12:46:32;99490.22;;;26.92;38.13
10646;BME280;5371;49.782;9.932;2022-08-21T12:49:07;99483.22;;;26.91;38.35
10646;BME280;5371;49.782;9.932;2022-08-21T12:51:47;99487.13;;;26.95;38.60
10646;BME280;5371;49.782;9.932;2022-08-21T12:54:23;99479.53;;;27.05;36.75
10646;BME280;5371;49.782;9.932;2022-08-21T12:56:59;99490.31;;;27.12;37.39
10646;BME280;5371;49.782;9.932;2022-08-21T12:59:28;99481.47;;;27.25;35.48
10646;BME280;5371;49.782;9.932;2022-08-21T13:01:58;99476.69;;;27.13;34.62
10646;BME280;5371;49.782;9.932;2022-08-21T13:04:33;99479.88;;;27.43;35.47
10646;BME280;5371;49.782;9.932;2022-08-21T13:07:08;99480.94;;;27.49;34.40
10646;BME280;5371;49.782;9.932;2022-08-21T13:09:44;99478.44;;;27.47;33.29
10646;BME280;5371;49.782;9.932;2022-08-21T13:12:14;99481.31;;;27.52;35.58
10646;BME280;5371;49.782;9.932;2022-08-21T13:14:44;99467.47;;;27.42;35.18
10646;BME280;5371;49.782;9.932;2022-08-21T13:17:16;99470.41;;;27.54;32.99
10646;BME280;5371;49.782;9.932;2022-08-21T13:19:52;99467.06;;;27.52;32.61
10646;BME280;5371;49.782;9.932;2022-08-21T13:22:21;99463.03;;;27.76;32.38
10646;BME280;5371;49.782;9.932;2022-08-21T13:24:50;99460.97;;;28.04;32.73
10646;BME280;5371;49.782;9.932;2022-08-21T13:27:24;99466.97;;;28.19;32.48